createdAt,value
2019-04-06T00:00:59.310Z,23.50
2019-04-06T00:03:38.349Z,23.60
2019-04-06T00:06:23.370Z,23.60
2019-04-06T00:09:01.937Z,23.60
2019-04-06T00:11:40.351Z,23.60
2019-04-06T00:14:18.048Z,23.60
2019-04-06T00:16:55.745Z,23.60
2019-04-06T00:19:33.285Z,23.60
2019-04-06T00:22:11.025Z,23.60
2019-04-06T00:24:48.970Z,23.60
2019-04-06T00:27:26.659Z,23.60
2019-04-06T00:30:04.541Z,23.60
2019-04-06T00:33:03.571Z,23.60
2019-04-06T00:35:41.433Z,23.60
2019-04-06T00:38:19.232Z,23.60
2019-04-06T00:40:57.244Z,23.60
2019-04-06T00:43:44.657Z,23.60
2019-04-06T00:46:24.465Z,23.70
2019-04-06T00:49:02.997Z,23.70
2019-04-06T00:51:41.198Z,23.60
2019-04-06T00:54:19.012Z,23.70
2019-04-06T00:56:59.878Z,23.70
2019-04-06T00:59:38.047Z,23.70
2019-04-06T01:02:17.863Z,23.70
2019-04-06T01:04:56.748Z,23.70
2019-04-06T01:07:48.056Z,23.70
2019-04-06T01:10:47.306Z,23.70
2019-04-06T01:13:26.365Z,23.70
2019-04-06T01:16:05.849Z,23.70
2019-04-06T01:18:44.826Z,23.70
2019-04-06T01:21:23.616Z,23.70
2019-04-06T01:24:02.148Z,23.80
2019-04-06T01:26:40.075Z,23.80
2019-04-06T01:29:18.798Z,23.80
2019-04-06T01:32:06.616Z,23.90
2019-04-06T01:34:50.729Z,23.90
2019-04-06T01:37:32.309Z,23.90
2019-04-06T01:40:10.408Z,24.00
2019-04-06T01:42:51.039Z,24.10
2019-04-06T01:45:29.203Z,24.10
2019-04-06T01:48:08.370Z,24.10
2019-04-06T01:50:47.549Z,24.20
2019-04-06T01:53:25.917Z,24.20
2019-04-06T01:56:18.352Z,24.20
2019-04-06T01:58:51.808Z,24.30
2019-04-06T02:01:47.563Z,24.40
2019-04-06T02:04:26.884Z,24.40
2019-04-06T02:07:11.044Z,24.50
2019-04-06T02:09:49.294Z,24.50
2019-04-06T02:12:28.753Z,24.50
2019-04-06T02:15:06.707Z,24.50
2019-04-06T02:17:45.240Z,24.50
2019-04-06T02:20:22.870Z,24.50
2019-04-06T02:23:02.889Z,24.50
2019-04-06T02:25:42.884Z,24.50
2019-04-06T02:28:21.477Z,24.50
2019-04-06T02:31:11.045Z,24.60
2019-04-06T02:34:06.080Z,24.70
2019-04-06T02:37:12.602Z,24.80
2019-04-06T02:40:16.023Z,24.90
2019-04-06T02:42:57.839Z,24.90
2019-04-06T02:45:39.630Z,24.90
2019-04-06T02:48:20.413Z,25.00
2019-04-06T02:51:01.265Z,25.00
2019-04-06T02:53:41.412Z,25.10
2019-04-06T02:56:22.981Z,25.10
2019-04-06T02:59:02.344Z,25.10
2019-04-06T03:01:46.083Z,25.10
2019-04-06T03:04:24.582Z,25.10
2019-04-06T03:07:03.622Z,25.00
2019-04-06T03:09:47.677Z,25.10
2019-04-06T03:12:30.282Z,25.10
2019-04-06T03:15:09.885Z,25.10
2019-04-06T03:17:48.375Z,25.10
2019-04-06T03:20:27.921Z,25.10
2019-04-06T03:23:07.712Z,25.10
2019-04-06T03:25:45.674Z,25.20
2019-04-06T03:28:25.219Z,25.40
2019-04-06T03:31:07.395Z,25.60
2019-04-06T03:33:45.283Z,25.70
2019-04-06T03:36:23.273Z,25.80
2019-04-06T03:39:07.369Z,25.90
2019-04-06T03:41:48.562Z,26.00
2019-04-06T03:44:26.354Z,26.00
2019-04-06T03:47:07.502Z,26.00
2019-04-06T03:49:46.055Z,25.80
2019-04-06T03:52:23.685Z,25.80
2019-04-06T03:55:03.398Z,25.70
2019-04-06T03:57:58.347Z,25.70
2019-04-06T04:00:36.413Z,25.60
2019-04-06T04:03:19.034Z,25.60
2019-04-06T04:06:23.374Z,25.50
2019-04-06T04:09:03.694Z,25.50
2019-04-06T04:11:43.283Z,25.40
2019-04-06T04:14:22.096Z,25.30
2019-04-06T04:17:10.433Z,25.30
2019-04-06T04:19:50.480Z,25.30
2019-04-06T04:22:34.948Z,25.30
2019-04-06T04:25:14.727Z,25.40
2019-04-06T04:27:58.295Z,25.40
2019-04-06T04:30:40.381Z,25.40
2019-04-06T04:33:29.476Z,25.60
2019-04-06T04:36:18.365Z,25.70
2019-04-06T04:39:09.099Z,25.80
2019-04-06T04:42:00.328Z,25.80
2019-04-06T04:44:38.279Z,25.80
2019-04-06T04:47:16.803Z,25.80
2019-04-06T04:49:56.279Z,25.80
2019-04-06T04:52:36.274Z,25.70
2019-04-06T04:55:18.138Z,25.70
2019-04-06T04:57:58.427Z,25.70
2019-04-06T05:00:37.629Z,25.80
2019-04-06T05:03:16.873Z,25.80
2019-04-06T05:06:01.335Z,26.00
2019-04-06T05:08:42.222Z,26.20
2019-04-06T05:11:20.920Z,26.40
2019-04-06T05:14:28.406Z,26.40
2019-04-06T05:17:06.599Z,26.40
2019-04-06T05:19:52.415Z,26.60
2019-04-06T05:22:46.748Z,26.70
2019-04-06T05:25:27.946Z,26.80
2019-04-06T05:28:11.213Z,27.00
2019-04-06T05:30:50.200Z,27.10
2019-04-06T05:33:28.249Z,27.20
2019-04-06T05:36:09.030Z,27.30
2019-04-06T05:38:50.133Z,27.10
2019-04-06T05:41:34.878Z,27.10
2019-04-06T05:44:15.644Z,27.20
2019-04-06T05:46:57.588Z,27.50
2019-04-06T05:49:45.303Z,27.60
2019-04-06T05:52:22.108Z,27.70
2019-04-06T05:55:00.307Z,27.90
2019-04-06T05:59:20.610Z,27.80
2019-04-06T06:02:04.889Z,28.00
2019-04-06T06:04:46.388Z,27.90
2019-04-06T06:07:26.768Z,27.80
2019-04-06T06:10:07.911Z,27.70
2019-04-06T06:12:49.825Z,27.60
2019-04-06T06:15:29.170Z,27.40
2019-04-06T06:18:07.027Z,27.60
2019-04-06T06:20:48.389Z,27.50
2019-04-06T06:23:47.646Z,27.50
2019-04-06T06:26:30.016Z,27.60
2019-04-06T06:29:10.271Z,27.50
2019-04-06T06:31:48.233Z,27.40
2019-04-06T06:34:26.054Z,27.20
2019-04-06T06:37:07.545Z,27.00
2019-04-06T06:39:57.047Z,26.90
2019-04-06T06:42:38.791Z,26.80
2019-04-06T06:45:20.953Z,26.80
2019-04-06T06:47:56.189Z,26.90
2019-04-06T06:50:39.258Z,27.10
2019-04-06T06:53:20.242Z,27.10
2019-04-06T06:56:00.433Z,27.10
2019-04-06T06:58:41.014Z,27.10
2019-04-06T07:01:18.867Z,27.20
2019-04-06T07:03:56.399Z,27.10
2019-04-06T07:06:37.590Z,27.10
2019-04-06T07:09:16.766Z,27.10
2019-04-06T07:11:55.370Z,27.00
2019-04-06T07:14:34.046Z,26.90
2019-04-06T07:17:13.857Z,26.80
2019-04-06T07:20:05.276Z,26.80
2019-04-06T07:22:44.220Z,26.80
2019-04-06T07:25:23.761Z,26.90
2019-04-06T07:28:03.498Z,27.00
2019-04-06T07:30:41.730Z,27.10
2019-04-06T07:33:20.039Z,27.20
2019-04-06T07:35:58.199Z,27.30
2019-04-06T07:38:38.280Z,27.20
2019-04-06T07:41:16.581Z,27.40
2019-04-06T07:43:54.769Z,27.70
2019-04-06T07:46:34.249Z,28.10
2019-04-06T07:49:19.683Z,28.50
2019-04-06T07:51:57.733Z,28.80
2019-04-06T07:54:38.203Z,28.90
2019-04-06T07:57:18.054Z,28.80
2019-04-06T07:59:59.631Z,28.90
2019-04-06T08:02:39.049Z,28.80
2019-04-06T08:05:17.715Z,28.70
2019-04-06T08:08:03.488Z,28.50
2019-04-06T08:10:42.024Z,28.60
2019-04-06T08:13:34.341Z,28.70
2019-04-06T08:16:13.154Z,28.50
2019-04-06T08:18:54.267Z,28.40
2019-04-06T08:21:41.214Z,28.30
2019-04-06T08:24:32.788Z,28.20
2019-04-06T08:27:10.194Z,28.10
2019-04-06T08:29:54.115Z,28.00
2019-04-06T08:32:45.413Z,27.90
2019-04-06T08:35:36.087Z,27.90
2019-04-06T08:38:17.033Z,27.60
2019-04-06T08:41:01.825Z,27.60
2019-04-06T08:43:40.663Z,27.60
2019-04-06T08:46:29.020Z,27.70
2019-04-06T08:49:10.234Z,27.80
2019-04-06T08:51:49.785Z,27.80
2019-04-06T08:54:34.150Z,27.90
2019-04-06T08:57:12.973Z,28.00
2019-04-06T08:59:55.299Z,27.90
2019-04-06T09:02:34.401Z,27.90
2019-04-06T09:05:14.727Z,27.90
2019-04-06T09:07:57.150Z,27.80
2019-04-06T09:10:59.653Z,27.80
2019-04-06T09:13:40.341Z,27.80
2019-04-06T09:16:17.497Z,27.80
2019-04-06T09:18:59.085Z,27.90
2019-04-06T09:21:42.105Z,27.90
2019-04-06T09:24:24.301Z,27.90
2019-04-06T09:27:02.664Z,27.90
2019-04-06T09:29:44.786Z,27.90
2019-04-06T09:32:24.343Z,27.90
2019-04-06T09:35:03.970Z,27.90
2019-04-06T09:37:41.860Z,27.90
2019-04-06T09:40:34.914Z,27.90
2019-04-06T09:43:12.521Z,27.90
2019-04-06T09:46:14.668Z,27.80
2019-04-06T09:49:06.751Z,27.80
2019-04-06T09:52:04.133Z,27.60
2019-04-06T09:55:00.281Z,27.60
2019-04-06T09:57:45.822Z,27.50
2019-04-06T10:00:53.258Z,27.30
2019-04-06T10:03:51.224Z,27.30
2019-04-06T10:06:47.593Z,27.20
2019-04-06T10:09:50.620Z,27.10
2019-04-06T10:14:21.343Z,27.00
2019-04-06T10:17:32.088Z,26.80
2019-04-06T10:20:35.444Z,26.70
2019-04-06T10:23:41.027Z,26.70
2019-04-06T10:26:40.285Z,26.60
2019-04-06T10:29:47.678Z,26.60
2019-04-06T10:32:39.998Z,26.60
2019-04-06T10:35:50.000Z,26.60
2019-04-06T10:38:48.681Z,26.60
2019-04-06T10:41:45.461Z,26.60
2019-04-06T10:44:55.261Z,26.60
2019-04-06T10:47:56.160Z,26.60
2019-04-06T10:50:54.181Z,26.50
2019-04-06T10:53:56.712Z,26.50
2019-04-06T10:57:04.107Z,26.40
2019-04-06T11:00:00.820Z,26.30
2019-04-06T11:02:47.981Z,26.20
2019-04-06T11:05:34.162Z,26.20
2019-04-06T11:08:42.967Z,26.20
2019-04-06T11:11:44.000Z,26.10
2019-04-06T11:14:38.331Z,26.10
2019-04-06T11:17:39.726Z,26.00
2019-04-06T11:20:40.404Z,26.00
2019-04-06T11:24:10.539Z,25.90
2019-04-06T11:27:11.011Z,25.80
2019-04-06T11:30:13.550Z,25.80
2019-04-06T11:33:05.450Z,25.70
2019-04-06T11:35:59.744Z,25.70
2019-04-06T11:39:06.165Z,25.70
2019-04-06T11:42:01.375Z,25.70
2019-04-06T11:45:08.664Z,25.60
2019-04-06T11:48:04.479Z,25.60
2019-04-06T11:50:54.460Z,25.60
2019-04-06T11:54:02.378Z,25.60
2019-04-06T11:57:03.357Z,25.60
2019-04-06T11:59:53.049Z,25.60
2019-04-06T12:02:56.006Z,25.60
2019-04-06T12:06:11.880Z,25.60
2019-04-06T12:09:06.481Z,25.60
2019-04-06T12:12:03.046Z,25.60
2019-04-06T12:14:58.425Z,25.50
2019-04-06T12:18:03.368Z,25.50
2019-04-06T12:20:53.007Z,25.50
2019-04-06T12:24:27.476Z,25.40
2019-04-06T12:33:04.543Z,25.40
2019-04-06T12:36:18.806Z,25.40
2019-04-06T12:39:20.342Z,25.40
2019-04-06T12:42:35.048Z,25.40
2019-04-06T12:45:29.942Z,25.40
2019-04-06T12:48:46.867Z,25.40
2019-04-06T12:51:52.499Z,25.40
2019-04-06T12:54:51.385Z,25.40
2019-04-06T12:57:48.399Z,25.40
2019-04-06T13:00:54.395Z,25.50
2019-04-06T13:03:52.380Z,25.30
2019-04-06T13:06:47.429Z,25.40
2019-04-06T13:09:46.417Z,25.40
2019-04-06T13:12:42.308Z,25.30
2019-04-06T13:16:40.975Z,25.30
2019-04-06T13:19:23.518Z,25.40
2019-04-06T13:21:58.965Z,25.30
2019-04-06T13:24:57.660Z,25.30
2019-04-06T13:27:36.433Z,25.30
2019-04-06T13:30:25.547Z,25.20
2019-04-06T13:33:02.561Z,25.30
2019-04-06T13:35:37.970Z,25.30
2019-04-06T13:38:16.103Z,25.20
2019-04-06T13:41:09.117Z,25.20
2019-04-06T13:43:50.256Z,25.10
2019-04-06T13:46:34.163Z,25.10
2019-04-06T13:49:11.060Z,25.10
2019-04-06T13:52:00.701Z,25.10
2019-04-06T13:54:40.039Z,25.10
2019-04-06T13:57:19.882Z,25.10
2019-04-06T14:00:19.944Z,25.10
2019-04-06T14:02:58.968Z,25.10
2019-04-06T14:05:34.506Z,25.10
2019-04-06T14:08:20.242Z,25.10
2019-04-06T14:11:12.078Z,25.10
2019-04-06T14:14:08.375Z,25.20
2019-04-06T14:17:00.503Z,25.10
2019-04-06T14:19:40.403Z,25.10
2019-04-06T14:22:25.988Z,25.00
2019-04-06T14:25:17.397Z,25.10
2019-04-06T14:28:03.513Z,25.00
2019-04-06T14:30:43.899Z,25.00
2019-04-06T14:33:37.505Z,25.00
2019-04-06T14:36:12.897Z,25.00
2019-04-06T14:38:59.956Z,25.00
2019-04-06T14:41:37.417Z,25.10
2019-04-06T14:44:13.809Z,25.00
2019-04-06T14:46:53.496Z,24.90
2019-04-06T14:49:34.615Z,24.90
2019-04-06T14:52:16.014Z,24.90
2019-04-06T14:54:52.403Z,24.90
2019-04-06T14:57:27.335Z,25.00
2019-04-06T15:00:09.107Z,25.00
2019-04-06T15:02:59.657Z,24.90
2019-04-06T15:05:52.016Z,24.90
2019-04-06T15:08:44.136Z,24.90
2019-04-06T15:11:25.187Z,24.90
2019-04-06T15:14:06.856Z,24.90
2019-04-06T15:16:59.215Z,24.90
2019-04-06T15:19:40.489Z,24.80
2019-04-06T15:22:19.878Z,24.80
2019-04-06T15:25:04.756Z,24.80
2019-04-06T15:30:44.931Z,24.90
2019-04-06T15:33:36.467Z,24.90
2019-04-06T15:36:18.483Z,24.80
2019-04-06T15:39:10.558Z,24.80
2019-04-06T15:41:56.318Z,24.80
2019-04-06T15:44:44.355Z,24.90
2019-04-06T15:47:28.705Z,24.80
2019-04-06T15:50:07.728Z,24.90
2019-04-06T15:52:43.941Z,24.80
2019-04-06T15:55:31.690Z,24.80
2019-04-06T15:58:23.506Z,24.90
2019-04-06T16:01:17.338Z,24.90
2019-04-06T16:03:59.388Z,24.80
2019-04-06T16:09:20.372Z,24.80
2019-04-06T16:12:08.013Z,24.80
2019-04-06T16:14:52.334Z,24.80
2019-04-06T16:17:31.278Z,24.80
2019-04-06T16:20:06.292Z,24.80
2019-04-06T16:22:47.604Z,24.80
2019-04-06T16:25:24.269Z,24.90
2019-04-06T16:28:18.820Z,24.80
2019-04-06T16:31:08.127Z,24.80
2019-04-06T16:33:45.927Z,24.80
2019-04-06T16:36:24.082Z,24.80
2019-04-06T16:39:16.262Z,24.80
2019-04-06T16:42:10.777Z,24.80
2019-04-06T16:44:56.105Z,24.90
2019-04-06T16:47:37.977Z,24.90
2019-04-06T16:50:11.612Z,24.80
2019-04-06T16:53:00.574Z,24.80
2019-04-06T16:56:00.716Z,24.80
2019-04-06T16:58:42.436Z,24.80
2019-04-06T17:01:34.231Z,24.90
2019-04-06T17:04:09.709Z,24.80
2019-04-06T17:06:45.454Z,24.80
2019-04-06T17:09:37.085Z,24.80
2019-04-06T17:12:28.816Z,24.80
2019-04-06T17:15:10.602Z,24.80
2019-04-06T17:17:52.233Z,24.80
2019-04-06T17:20:49.639Z,24.80
2019-04-06T17:23:32.478Z,24.80
2019-04-06T17:26:11.915Z,24.80
2019-04-06T17:29:03.746Z,24.80
2019-04-06T17:31:38.989Z,24.80
2019-04-06T17:34:17.117Z,24.80
2019-04-06T17:36:58.306Z,24.80
2019-04-06T17:39:39.344Z,24.70
2019-04-06T17:42:17.914Z,24.70
2019-04-06T17:45:10.379Z,24.70
2019-04-06T17:47:55.082Z,24.70
2019-04-06T17:50:52.029Z,24.60
2019-04-06T17:53:39.151Z,24.60
2019-04-06T17:56:23.715Z,24.60
2019-04-06T17:59:08.985Z,24.60
2019-04-06T18:01:43.913Z,24.60
2019-04-06T18:04:25.445Z,24.60
2019-04-06T18:07:17.451Z,24.70
2019-04-06T18:09:59.796Z,24.60
2019-04-06T18:12:34.987Z,24.70
2019-04-06T18:15:13.215Z,24.70
2019-04-06T18:17:48.200Z,24.80
2019-04-06T18:20:23.201Z,24.80
2019-04-06T18:22:57.365Z,24.80
2019-04-06T18:25:31.521Z,24.80
2019-04-06T18:28:05.386Z,24.80
2019-04-06T18:30:39.761Z,24.80
2019-04-06T18:33:15.492Z,24.90
2019-04-06T18:35:52.917Z,24.80
2019-04-06T18:38:35.412Z,24.80
2019-04-06T18:41:09.548Z,24.80
2019-04-06T18:43:44.218Z,24.80
2019-04-06T18:46:24.179Z,24.80
2019-04-06T18:49:04.293Z,24.80
2019-04-06T18:51:43.303Z,24.80
2019-04-06T18:54:18.900Z,24.80
2019-04-06T18:56:55.748Z,24.80
2019-04-06T18:59:30.705Z,24.80
2019-04-06T19:02:04.487Z,24.80
2019-04-06T19:04:39.775Z,24.90
2019-04-06T19:07:15.320Z,24.90
2019-04-06T19:09:49.758Z,24.80
2019-04-06T19:12:23.758Z,24.80
2019-04-06T19:15:00.682Z,24.80
2019-04-06T19:17:35.197Z,24.80
2019-04-06T19:20:10.461Z,24.80
2019-04-06T19:22:44.425Z,24.80
2019-04-06T19:25:18.938Z,24.80
2019-04-06T19:27:56.862Z,24.80
2019-04-06T19:30:31.525Z,24.80
2019-04-06T19:33:05.655Z,24.80
2019-04-06T19:35:39.795Z,24.80
2019-04-06T19:38:13.555Z,24.80
2019-04-06T19:40:48.458Z,24.70
2019-04-06T19:43:22.949Z,24.80
2019-04-06T19:45:57.724Z,24.80
2019-04-06T19:48:31.985Z,24.80
2019-04-06T19:51:07.058Z,24.80
2019-04-06T19:53:41.262Z,24.80
2019-04-06T19:56:15.587Z,24.70
2019-04-06T19:58:49.328Z,24.80
2019-04-06T20:01:24.215Z,24.80
2019-04-06T20:03:58.062Z,24.80
2019-04-06T20:06:32.957Z,24.70
2019-04-06T20:09:08.534Z,24.70
2019-04-06T20:11:42.853Z,24.70
2019-04-06T20:14:16.659Z,24.70
2019-04-06T20:16:51.294Z,24.70
2019-04-06T20:19:25.659Z,24.70
2019-04-06T20:21:59.633Z,24.80
2019-04-06T20:24:34.578Z,24.80
2019-04-06T20:27:08.650Z,24.80
2019-04-06T20:29:42.369Z,24.80
2019-04-06T20:32:16.636Z,24.70
2019-04-06T20:34:50.532Z,24.70
2019-04-06T20:37:24.330Z,24.70
2019-04-06T20:39:58.636Z,24.70
2019-04-06T20:42:32.446Z,24.70
2019-04-06T20:45:06.748Z,24.70
2019-04-06T20:47:40.332Z,24.70
2019-04-06T20:50:14.544Z,24.70
2019-04-06T20:52:48.181Z,24.70
2019-04-06T20:55:22.161Z,24.70
2019-04-06T20:57:56.990Z,24.70
2019-04-06T21:00:31.518Z,24.70
2019-04-06T21:03:06.449Z,24.70
2019-04-06T21:05:40.688Z,24.70
2019-04-06T21:08:14.552Z,24.70
2019-04-06T21:10:48.643Z,24.70
2019-04-06T21:13:22.510Z,24.60
2019-04-06T21:15:56.734Z,24.60
2019-04-06T21:18:30.282Z,24.70
2019-04-06T21:21:04.240Z,24.60
2019-04-06T21:23:38.531Z,24.70
2019-04-06T21:26:26.281Z,24.70
2019-04-06T21:29:01.567Z,24.70
2019-04-06T21:31:36.955Z,24.60
2019-04-06T21:34:14.483Z,24.60
2019-04-06T21:36:46.242Z,24.60
2019-04-06T21:39:20.101Z,24.60
2019-04-06T21:41:54.258Z,24.60
2019-04-06T21:44:27.847Z,24.60
2019-04-06T21:47:01.486Z,24.60
2019-04-06T21:49:35.676Z,24.60
2019-04-06T21:52:29.426Z,24.60
2019-04-06T21:55:03.985Z,24.60
2019-04-06T21:57:38.752Z,24.60
2019-04-06T22:00:13.083Z,24.60
2019-04-06T22:02:48.970Z,24.70
2019-04-06T22:05:22.869Z,24.60
2019-04-06T22:07:57.252Z,24.60
2019-04-06T22:10:31.493Z,24.60
2019-04-06T22:13:05.999Z,24.60
2019-04-06T22:15:40.390Z,24.60
2019-04-06T22:18:14.654Z,24.60
2019-04-06T22:20:49.058Z,24.60
2019-04-06T22:23:22.983Z,24.50
2019-04-06T22:25:57.766Z,24.50
2019-04-06T22:28:32.251Z,24.50
2019-04-06T22:31:06.518Z,24.50
2019-04-06T22:33:40.809Z,24.50
2019-04-06T22:36:15.094Z,24.50
2019-04-06T22:38:49.187Z,24.50
2019-04-06T22:41:22.844Z,24.50
2019-04-06T22:43:57.217Z,24.50
2019-04-06T22:46:31.552Z,24.50
2019-04-06T22:49:05.591Z,24.50
2019-04-06T22:51:39.971Z,24.50
2019-04-06T22:54:14.380Z,24.50
2019-04-06T22:56:48.543Z,24.50
2019-04-06T22:59:22.467Z,24.50
2019-04-06T23:01:56.450Z,24.50
2019-04-06T23:04:32.034Z,24.60
2019-04-06T23:07:07.532Z,24.60
2019-04-06T23:09:41.741Z,24.60
2019-04-06T23:12:15.635Z,24.60
2019-04-06T23:14:49.266Z,24.60
2019-04-06T23:17:23.086Z,24.60
2019-04-06T23:19:56.885Z,24.60
2019-04-06T23:22:30.984Z,24.60
2019-04-06T23:25:04.998Z,24.60
2019-04-06T23:27:38.816Z,24.60
2019-04-06T23:30:13.371Z,24.60
2019-04-06T23:32:46.854Z,24.70
2019-04-06T23:35:20.939Z,24.70
2019-04-06T23:37:54.952Z,24.80
2019-04-06T23:40:29.462Z,24.80
2019-04-06T23:43:04.014Z,24.80
2019-04-06T23:45:37.910Z,24.80
2019-04-06T23:48:11.990Z,24.80
2019-04-06T23:50:45.440Z,24.80
2019-04-06T23:53:20.352Z,24.90
2019-04-06T23:55:54.448Z,24.90
2019-04-06T23:58:29.593Z,24.90
